createdAt,value
2023-03-05T07:52:02.033Z,100.00
2023-03-05T07:53:02.144Z,99.99
2023-03-05T07:54:02.353Z,99.99
2023-03-05T07:55:02.529Z,99.99
2023-03-05T07:56:02.598Z,99.99
2023-03-05T07:57:02.753Z,99.99
2023-03-05T07:58:02.935Z,99.99
2023-03-05T07:59:03.042Z,99.99
2023-03-05T08:00:03.230Z,99.99
2023-03-05T08:01:03.352Z,99.99
2023-03-05T08:02:03.500Z,99.99
2023-03-05T08:03:03.691Z,99.99
2023-03-05T08:04:03.874Z,99.99
2023-03-05T08:05:03.925Z,99.99
2023-03-05T08:06:04.061Z,99.99
2023-03-05T08:07:04.279Z,99.99
2023-03-05T08:08:04.351Z,99.99
2023-03-05T08:09:04.544Z,99.99
2023-03-05T08:10:04.640Z,99.99
2023-03-05T08:11:04.767Z,99.99
2023-03-05T08:12:04.869Z,99.99
2023-03-05T08:13:05.019Z,99.99
2023-03-05T08:14:05.307Z,99.99
2023-03-05T08:15:05.347Z,99.99
2023-03-05T08:16:05.534Z,99.99
2023-03-05T08:17:05.584Z,99.99
2023-03-05T08:18:05.731Z,99.99
2023-03-05T08:19:05.960Z,99.99
2023-03-05T08:20:06.076Z,99.99
2023-03-05T08:21:06.242Z,99.99
2023-03-05T08:22:06.390Z,99.99
2023-03-05T08:23:06.558Z,99.99
2023-03-05T08:24:06.715Z,99.99
2023-03-05T08:25:06.825Z,99.99
2023-03-05T08:26:06.975Z,99.99
2023-03-05T08:27:07.144Z,99.99
2023-03-05T08:28:07.344Z,99.99
2023-03-05T08:29:08.188Z,99.99
2023-03-05T08:30:07.642Z,99.99
2023-03-05T08:31:07.745Z,99.99
2023-03-05T08:32:07.889Z,99.99
2023-03-05T08:33:07.960Z,99.99
2023-03-05T08:34:08.205Z,99.99
2023-03-05T08:35:08.257Z,99.99
2023-03-05T08:36:08.376Z,99.99
2023-03-05T08:37:08.560Z,99.99
2023-03-05T08:38:08.725Z,99.99
2023-03-05T08:39:08.863Z,99.99
2023-03-05T08:40:09.008Z,99.99
2023-03-05T08:41:09.146Z,99.99
2023-03-05T08:42:09.260Z,99.99
2023-03-05T08:43:09.408Z,99.99
2023-03-05T08:44:09.563Z,99.99
2023-03-05T08:45:09.687Z,99.99
2023-03-05T08:46:09.929Z,99.99
2023-03-05T08:47:09.984Z,99.99
2023-03-05T08:48:10.114Z,99.99
2023-03-05T08:49:10.303Z,99.99
2023-03-05T08:50:10.455Z,99.99
2023-03-05T08:51:10.599Z,99.99
2023-03-05T08:52:10.764Z,99.99
2023-03-05T08:53:10.767Z,99.99
2023-03-05T08:54:10.910Z,99.99
2023-03-05T08:55:10.987Z,99.99
2023-03-05T08:56:11.195Z,99.99
2023-03-05T08:57:11.312Z,99.99
2023-03-05T08:58:11.426Z,99.99
2023-03-05T08:59:13.618Z,99.99
2023-03-05T09:00:11.694Z,99.99
2023-03-05T09:01:11.867Z,99.99
2023-03-05T09:02:12.019Z,99.99
2023-03-05T09:03:12.113Z,99.99
2023-03-05T09:04:12.272Z,99.99
2023-03-05T09:05:12.387Z,99.99
2023-03-05T09:06:12.614Z,99.99
2023-03-05T09:07:12.701Z,99.99
2023-03-05T09:08:12.815Z,99.99
2023-03-05T09:09:12.922Z,99.99
2023-03-05T09:10:13.080Z,99.99
2023-03-05T09:11:13.161Z,99.99
2023-03-05T09:12:13.325Z,99.99
2023-03-05T09:13:13.405Z,99.99
2023-03-05T09:14:13.566Z,99.99
2023-03-05T09:15:13.655Z,99.99
2023-03-05T09:16:13.846Z,99.99
2023-03-05T09:17:13.971Z,99.99
2023-03-05T09:18:14.141Z,99.99
2023-03-05T09:19:14.234Z,99.99
2023-03-05T09:20:14.343Z,99.99
2023-03-05T09:21:14.452Z,99.99
2023-03-05T09:22:14.639Z,99.74
2023-03-05T09:23:14.815Z,99.99
2023-03-05T09:24:14.871Z,99.99
2023-03-05T09:25:15.018Z,99.58
2023-03-05T09:26:15.229Z,99.85
2023-03-05T09:27:15.388Z,99.95
2023-03-05T09:28:15.521Z,99.95
2023-03-05T09:29:15.626Z,99.49
2023-03-05T09:30:15.759Z,99.14
2023-03-05T09:31:15.922Z,99.09
2023-03-05T09:32:16.093Z,98.37
2023-03-05T09:33:16.199Z,97.71
2023-03-05T09:34:16.311Z,96.92
2023-03-05T09:35:16.417Z,96.30
2023-03-05T09:36:16.549Z,96.20
2023-03-05T09:37:16.665Z,96.41
2023-03-05T09:38:16.810Z,96.05
2023-03-05T09:39:16.926Z,95.95
2023-03-05T09:40:17.015Z,95.74
2023-03-05T09:41:17.098Z,95.89
2023-03-05T09:42:17.215Z,96.30
2023-03-05T09:43:17.418Z,96.61
2023-03-05T09:44:17.529Z,96.51
2023-03-05T09:45:17.629Z,96.09
2023-03-05T09:46:17.882Z,95.78
2023-03-05T09:47:17.940Z,96.41
2023-03-05T09:48:18.144Z,96.26
2023-03-05T09:49:18.251Z,95.74
2023-03-05T09:50:18.405Z,95.32
2023-03-05T09:51:18.477Z,95.02
2023-03-05T09:52:18.656Z,94.67
2023-03-05T09:53:18.832Z,93.43
2023-03-05T09:54:18.898Z,92.60
2023-03-05T09:55:18.989Z,92.29
2023-03-05T09:56:19.215Z,91.63
2023-03-05T09:57:19.320Z,90.67
2023-03-05T09:58:19.539Z,88.68
2023-03-05T09:59:19.692Z,88.68
2023-03-05T10:00:19.758Z,88.18
2023-03-05T10:01:19.874Z,86.88
2023-03-05T10:02:20.029Z,88.29
2023-03-05T10:03:20.317Z,86.61
2023-03-05T10:04:20.480Z,88.31
2023-03-05T10:05:20.565Z,89.44
2023-03-05T10:06:20.704Z,89.89
2023-03-05T10:07:20.866Z,88.76
2023-03-05T10:08:21.060Z,89.94
2023-03-05T10:09:21.175Z,90.72
2023-03-05T10:10:21.295Z,90.31
2023-03-05T10:11:21.396Z,90.14
2023-03-05T10:12:21.564Z,89.94
2023-03-05T10:13:21.728Z,90.55
2023-03-05T10:14:21.952Z,90.45
2023-03-05T10:15:22.008Z,90.14
2023-03-05T10:16:22.204Z,91.89
2023-03-05T10:17:22.308Z,91.58
2023-03-05T10:18:22.448Z,90.86
2023-03-05T10:19:22.643Z,89.73
2023-03-05T10:20:22.743Z,89.94
2023-03-05T10:21:23.211Z,89.05
2023-03-05T10:22:23.100Z,89.46
2023-03-05T10:23:23.235Z,89.01
2023-03-05T10:24:23.347Z,88.04
2023-03-05T10:25:23.524Z,87.73
2023-03-05T10:26:23.618Z,87.01
2023-03-05T10:27:23.743Z,86.80
2023-03-05T10:28:23.925Z,87.11
2023-03-05T10:29:24.005Z,86.84
2023-03-05T10:30:24.182Z,87.77
2023-03-05T10:31:24.272Z,87.81
2023-03-05T10:32:24.509Z,88.74
2023-03-05T10:33:24.597Z,88.22
2023-03-05T10:34:24.807Z,89.29
2023-03-05T10:35:24.922Z,88.89
2023-03-05T10:36:25.056Z,88.06
2023-03-05T10:37:25.107Z,88.16
2023-03-05T10:38:25.319Z,87.81
2023-03-05T10:39:25.396Z,87.08
2023-03-05T10:40:25.537Z,87.66
2023-03-05T10:41:25.629Z,86.49
2023-03-05T10:42:25.810Z,85.89
2023-03-05T10:43:26.034Z,83.92
2023-03-05T10:44:26.147Z,82.20
2023-03-05T10:45:26.237Z,80.42
2023-03-05T10:46:26.348Z,78.67
2023-03-05T10:47:26.439Z,76.68
2023-03-05T10:48:26.643Z,75.31
2023-03-05T10:49:26.737Z,74.46
2023-03-05T10:50:26.885Z,74.53
2023-03-05T10:51:26.964Z,73.91
2023-03-05T10:52:27.126Z,72.99
2023-03-05T10:53:27.284Z,74.22
2023-03-05T10:54:27.462Z,76.86
2023-03-05T10:55:27.636Z,77.62
2023-03-05T10:56:27.777Z,78.30
2023-03-05T10:57:27.872Z,79.95
2023-03-05T10:58:28.028Z,79.79
2023-03-05T10:59:28.129Z,79.61
2023-03-05T11:00:28.331Z,79.68
2023-03-05T11:01:28.550Z,80.30
2023-03-05T11:02:28.671Z,80.67
2023-03-05T11:03:28.732Z,80.19
2023-03-05T11:04:28.893Z,78.23
2023-03-05T11:05:28.970Z,77.65
2023-03-05T11:06:29.125Z,76.45
2023-03-05T11:07:29.216Z,74.66
2023-03-05T11:08:29.561Z,73.95
2023-03-05T11:09:29.506Z,74.26
2023-03-05T11:10:29.692Z,73.95
2023-03-05T11:11:29.848Z,74.05
2023-03-05T11:12:29.976Z,74.32
2023-03-05T11:13:30.064Z,73.44
2023-03-05T11:14:30.160Z,72.31
2023-03-05T11:15:30.279Z,69.89
2023-03-05T11:16:30.460Z,69.95
2023-03-05T11:17:30.582Z,71.62
2023-03-05T11:18:30.717Z,70.98
2023-03-05T11:19:30.803Z,70.91
2023-03-05T11:20:30.899Z,71.66
2023-03-05T11:21:31.070Z,71.52
2023-03-05T11:22:31.268Z,72.41
2023-03-05T11:23:31.426Z,71.73
2023-03-05T11:24:31.527Z,70.91
2023-03-05T11:25:31.676Z,69.81
2023-03-05T11:26:31.796Z,71.35
2023-03-05T11:27:31.956Z,69.47
2023-03-05T11:28:33.705Z,69.78
2023-03-05T11:29:32.192Z,70.43
2023-03-05T11:30:32.358Z,70.50
2023-03-05T11:31:32.420Z,68.76
2023-03-05T11:32:32.661Z,70.32
2023-03-05T11:33:32.802Z,69.27
2023-03-05T11:34:32.920Z,69.47
2023-03-05T11:35:33.064Z,67.70
2023-03-05T11:36:33.152Z,66.99
2023-03-05T11:37:33.304Z,66.01
2023-03-05T11:38:35.056Z,64.72
2023-03-05T11:39:33.568Z,63.12
2023-03-05T11:40:33.682Z,64.07
2023-03-05T11:41:33.826Z,64.86
2023-03-05T11:42:33.915Z,62.54
2023-03-05T11:43:34.074Z,62.95
2023-03-05T11:44:34.138Z,62.95
2023-03-05T11:45:34.270Z,61.99
2023-03-05T11:46:34.447Z,62.10
2023-03-05T11:47:34.528Z,62.55
2023-03-05T11:48:34.671Z,62.29
2023-03-05T11:49:35.345Z,60.91
2023-03-05T11:50:34.886Z,58.92
2023-03-05T11:51:35.021Z,57.56
2023-03-05T11:52:35.128Z,57.39
2023-03-05T11:53:35.279Z,58.39
2023-03-05T11:54:35.400Z,59.36
2023-03-05T11:55:35.530Z,60.33
2023-03-05T11:56:35.665Z,61.00
2023-03-05T11:57:35.784Z,62.74
2023-03-05T11:58:35.922Z,62.10
2023-03-05T11:59:36.019Z,61.99
2023-03-05T12:00:36.133Z,60.97
2023-03-05T12:01:36.282Z,60.85
2023-03-05T12:02:36.423Z,60.67
2023-03-05T12:03:36.591Z,58.62
2023-03-05T12:04:36.614Z,58.86
2023-03-05T12:05:36.745Z,60.28
2023-03-05T12:06:36.865Z,61.41
2023-03-05T12:07:36.994Z,60.87
2023-03-05T12:08:37.153Z,60.77
2023-03-05T12:09:37.266Z,60.53
2023-03-05T12:10:37.415Z,60.58
2023-03-05T12:11:37.541Z,60.48
2023-03-05T12:12:37.676Z,60.35
2023-03-05T12:13:38.846Z,58.95
2023-03-05T12:14:37.878Z,60.00
2023-03-05T12:15:38.021Z,59.85
2023-03-05T12:16:38.164Z,100.00
2023-03-05T12:17:38.243Z,100.00
2023-03-05T12:18:38.364Z,100.00
2023-03-05T12:19:38.477Z,100.00
2023-03-05T12:20:38.691Z,100.00
2023-03-05T12:21:38.802Z,100.00
2023-03-05T12:22:39.687Z,61.03
2023-03-05T12:23:39.536Z,100.00
2023-03-05T12:24:39.579Z,100.00
2023-03-05T12:25:39.542Z,100.00
2023-03-05T12:26:39.503Z,100.00
2023-03-05T12:27:39.506Z,61.57
2023-03-05T12:28:39.667Z,100.00
2023-03-05T12:29:40.117Z,100.00
2023-03-05T12:30:39.817Z,100.00
2023-03-05T12:31:39.955Z,100.00
2023-03-05T12:32:40.102Z,100.00
2023-03-05T12:33:40.224Z,100.00
2023-03-05T12:34:40.573Z,100.00
2023-03-05T12:35:41.212Z,100.00
2023-03-05T12:36:40.878Z,100.00
2023-03-05T12:37:40.768Z,100.00
2023-03-05T12:38:40.881Z,100.00
2023-03-05T12:39:41.711Z,100.00
2023-03-05T12:40:41.446Z,100.00
2023-03-05T12:41:41.801Z,100.00
2023-03-05T12:42:41.418Z,100.00
2023-03-05T12:43:41.568Z,100.00
2023-03-05T12:44:41.644Z,100.00
2023-03-05T12:45:41.818Z,100.00
2023-03-05T12:46:41.923Z,100.00
2023-03-05T12:47:42.057Z,100.00
2023-03-05T12:48:42.292Z,100.00
2023-03-05T12:49:42.259Z,100.00
2023-03-05T12:50:42.380Z,100.00
2023-03-05T12:51:42.498Z,100.00
2023-03-05T12:52:42.721Z,100.00
2023-03-05T12:53:42.748Z,100.00
2023-03-05T12:54:42.850Z,100.00
2023-03-05T12:55:42.991Z,100.00
2023-03-05T12:56:43.137Z,100.00
2023-03-05T12:57:43.271Z,100.00
2023-03-05T12:58:43.390Z,100.00
2023-03-05T12:59:43.489Z,100.00
2023-03-05T13:00:43.692Z,100.00
2023-03-05T13:01:43.748Z,100.00
2023-03-05T13:02:43.897Z,100.00
2023-03-05T13:03:44.039Z,100.00
2023-03-05T13:04:44.106Z,100.00
2023-03-05T13:05:44.264Z,100.00
2023-03-05T13:06:44.314Z,100.00
2023-03-05T13:07:44.487Z,100.00
2023-03-05T13:08:44.582Z,100.00
2023-03-05T13:09:44.698Z,100.00
2023-03-05T13:10:44.800Z,100.00
2023-03-05T13:11:45.029Z,100.00
2023-03-05T13:12:45.122Z,100.00
2023-03-05T13:13:45.262Z,100.00
2023-03-05T13:14:45.391Z,100.00
2023-03-05T13:15:45.562Z,100.00
2023-03-05T13:16:45.826Z,100.00
2023-03-05T13:17:45.919Z,100.00
2023-03-05T13:18:46.052Z,100.00
2023-03-05T13:19:46.172Z,100.00
2023-03-05T13:20:46.283Z,100.00
2023-03-05T13:21:46.467Z,100.00
2023-03-05T13:22:46.671Z,100.00
2023-03-05T13:23:46.733Z,100.00
2023-03-05T13:24:46.813Z,100.00
2023-03-05T13:25:47.005Z,100.00
2023-03-05T13:26:47.147Z,100.00
2023-03-05T13:27:47.227Z,100.00
2023-03-05T13:28:47.371Z,100.00
2023-03-05T13:29:47.508Z,100.00
2023-03-05T13:30:47.682Z,100.00
2023-03-05T13:31:47.949Z,100.00
2023-03-05T13:32:47.939Z,100.00
2023-03-05T13:33:48.116Z,100.00
2023-03-05T13:34:48.301Z,100.00
